Time;durP1;ratioP1;P1;durP2;ratioP2;P2;SDS_P1;SDS_P2;PMS_P1;PMS_P2;Temp;Humidity;BMP_temperature;BMP_pressure;BME280_temperature;BME280_humidity;BME280_pressure;Samples;Min_cycle;Max_cycle;Signal;HPM_P1;HPM_P2
2023/03/17 00:00:41;;;;;;;;;14.67;14.67;;;;;13.47;50.61;100250.59;5053983;28;45397;-74
2023/03/17 00:03:09;;;;;;;;;15.67;14.33;;;;;13.08;50.31;100171.31;5056185;28;45511;-75
2023/03/17 00:05:35;;;;;;;;;20.00;18.00;;;;;13.44;50.70;100240.28;5058257;28;45590;-74
2023/03/17 00:08:11;;;;;;;;;14.67;14.00;;;;;13.42;50.49;100250.28;5058049;28;45691;-74
2023/03/17 00:10:36;;;;;;;;;17.00;14.00;;;;;12.05;50.57;100031.91;5042242;28;46063;-74
2023/03/17 00:13:02;;;;;;;;;20.67;16.67;;;;;12.92;50.66;100171.41;5058076;28;45396;-75
2023/03/17 00:15:28;;;;;;;;;15.00;11.00;;;;;13.36;50.62;100242.97;5059988;28;45547;-74
2023/03/17 00:17:55;;;;;;;;;14.00;13.00;;;;;13.13;50.79;100210.84;5059416;28;45408;-74
2023/03/17 00:20:29;;;;;;;;;14.00;14.00;;;;;13.28;51.09;100237.66;5059638;28;45573;-74
2023/03/17 00:22:58;;;;;;;;;12.00;11.33;;;;;12.94;50.57;100188.06;5059890;28;45177;-75
2023/03/17 00:25:26;;;;;;;;;13.67;12.33;;;;;13.38;50.84;100259.63;5059918;28;45527;-74
2023/03/17 00:27:52;;;;;;;;;12.00;12.00;;;;;13.30;50.43;100257.00;5041306;28;47710;-75
2023/03/17 00:30:18;;;;;;;;;15.33;12.33;;;;;13.37;50.65;100260.63;5059454;28;45545;-74
2023/03/17 00:32:45;;;;;;;;;13.67;12.67;;;;;12.71;50.82;100149.81;5059674;28;45300;-74
2023/03/17 00:35:16;;;;;;;;;15.00;14.00;;;;;13.33;50.82;100262.00;5059907;28;45179;-74
2023/03/17 00:37:42;;;;;;;;;13.00;13.00;;;;;13.30;51.04;100262.34;5059601;28;47106;-73
2023/03/17 00:40:15;;;;;;;;;13.00;12.67;;;;;13.28;50.95;100264.38;5059692;28;45277;-74
2023/03/17 00:42:40;;;;;;;;;17.00;14.67;;;;;13.08;50.83;100230.03;5059973;28;45353;-73
2023/03/17 00:45:06;;;;;;;;;11.00;11.00;;;;;13.25;50.78;100267.38;5059586;28;45321;-73
2023/03/17 00:47:31;;;;;;;;;13.33;11.67;;;;;13.29;50.78;100276.69;5059312;28;45554;-75
2023/03/17 00:49:57;;;;;;;;;15.33;14.00;;;;;13.27;51.04;100273.38;5058973;28;45277;-75
2023/03/17 00:52:22;;;;;;;;;14.00;14.00;;;;;13.28;51.12;100277.72;5059555;28;45318;-76
2023/03/17 00:54:48;;;;;;;;;14.33;12.00;;;;;12.89;50.79;100195.75;5059708;28;45420;-73
2023/03/17 00:57:13;;;;;;;;;16.00;13.00;;;;;13.27;51.07;100265.38;5041243;28;47340;-73
2023/03/17 00:59:41;;;;;;;;;18.00;14.00;;;;;13.35;50.51;100278.66;5058410;28;45240;-75
2023/03/17 01:02:10;;;;;;;;;14.00;13.00;;;;;13.34;50.33;100255.66;5059786;28;45239;-75
2023/03/17 01:04:35;;;;;;;;;11.33;10.33;;;;;13.27;50.72;100255.53;5058358;28;45368;-72
2023/03/17 01:07:01;;;;;;;;;12.33;10.33;;;;;13.27;50.69;100254.69;5041392;28;47724;-74
2023/03/17 01:09:27;;;;;;;;;13.33;11.00;;;;;13.03;50.72;100216.38;5040833;28;45576;-74
2023/03/17 01:11:54;;;;;;;;;15.00;12.33;;;;;13.25;50.75;100252.19;5059390;28;45528;-74
2023/03/17 01:14:19;;;;;;;;;14.33;13.33;;;;;13.03;51.15;100227.06;5041125;28;45519;-73
2023/03/17 01:16:46;;;;;;;;;13.00;11.00;;;;;12.89;50.96;100202.94;5057347;28;48620;-74
2023/03/17 01:19:12;;;;;;;;;14.33;12.33;;;;;13.29;51.12;100271.38;5051552;28;46620;-75
2023/03/17 01:21:38;;;;;;;;;14.00;13.00;;;;;13.27;51.01;100265.38;5059078;28;45265;-72
2023/03/17 01:24:04;;;;;;;;;15.00;11.00;;;;;13.25;50.62;100270.06;5059080;28;45457;-75
2023/03/17 01:26:30;;;;;;;;;10.33;10.33;;;;;13.25;50.82;100267.38;5058793;28;46516;-74
2023/03/17 01:28:55;;;;;;;;;10.00;9.00;;;;;12.98;50.86;100234.72;5057689;28;45476;-73
2023/03/17 01:31:21;;;;;;;;;16.00;12.33;;;;;13.15;51.01;100262.19;5059163;28;45447;-74
2023/03/17 01:33:47;;;;;;;;;12.00;12.00;;;;;13.10;50.78;100254.72;5059319;28;45568;-73
2023/03/17 01:36:12;;;;;;;;;15.00;13.00;;;;;13.14;50.97;100254.38;5059203;28;46140;-75
2023/03/17 01:38:37;;;;;;;;;12.00;12.00;;;;;13.15;51.45;100258.69;5057410;28;45445;-74
2023/03/17 01:41:03;;;;;;;;;12.00;12.00;;;;;12.82;51.61;100208.13;5056838;28;45438;-75
2023/03/17 01:43:29;;;;;;;;;9.00;8.67;;;;;13.15;50.97;100261.38;5040656;28;45283;-73
2023/03/17 01:46:04;;;;;;;;;14.00;12.00;;;;;13.11;51.16;100255.53;5058227;28;46561;-73
2023/03/17 01:48:33;;;;;;;;;10.67;10.67;;;;;12.91;51.22;100225.75;5058254;28;45407;-75
2023/03/17 01:51:00;;;;;;;;;15.00;10.67;;;;;13.10;51.10;100238.69;5058426;28;45498;-75
2023/03/17 01:53:27;;;;;;;;;11.33;10.00;;;;;12.73;51.15;100182.47;5058539;28;45400;-74
2023/03/17 01:55:55;;;;;;;;;12.00;11.00;;;;;13.10;51.71;100245.88;5058226;28;45821;-74
2023/03/17 01:58:23;;;;;;;;;8.33;8.33;;;;;12.47;51.52;100143.53;5040092;28;45356;-73
2023/03/17 02:00:49;;;;;;;;;11.33;11.33;;;;;12.29;51.03;100108.28;5040124;28;45490;-73
2023/03/17 02:03:15;;;;;;;;;10.00;9.00;;;;;12.16;51.61;100090.13;5039499;28;45404;-72
2023/03/17 02:05:41;;;;;;;;;8.00;8.00;;;;;12.92;50.97;100227.41;5046088;28;46362;-81
2023/03/17 02:08:15;;;;;;;;;10.00;10.00;;;;;13.06;51.65;100237.38;5056295;28;45478;-74
2023/03/17 02:10:41;;;;;;;;;8.00;8.00;;;;;13.08;51.46;100240.72;5055459;28;45446;-75
2023/03/17 02:13:09;;;;;;;;;10.67;10.00;;;;;13.10;51.56;100232.53;5051248;28;45571;-76
2023/03/17 02:15:49;;;;;;;;;12.33;11.00;;;;;12.98;51.77;100229.41;5056008;28;45646;-73
2023/03/17 02:18:17;;;;;;;;;11.33;10.67;;;;;12.19;51.58;100095.13;5056306;28;45366;-74
2023/03/17 02:20:45;;;;;;;;;11.33;10.67;;;;;13.08;51.64;100247.88;5057996;28;45427;-73
2023/03/17 02:23:14;;;;;;;;;15.00;13.00;;;;;13.10;51.82;100252.03;5057046;28;45401;-75
2023/03/17 02:25:41;;;;;;;;;9.67;9.67;;;;;13.09;51.21;100245.03;5056769;28;46600;-75
2023/03/17 02:28:12;;;;;;;;;10.00;10.00;;;;;12.88;51.72;100218.09;5056287;28;45609;-74
2023/03/17 02:30:38;;;;;;;;;10.67;10.00;;;;;12.51;51.59;100151.19;5058127;28;45503;-74
2023/03/17 02:33:03;;;;;;;;;11.00;11.00;;;;;13.03;51.57;100231.56;5058266;28;45439;-73
2023/03/17 02:35:29;;;;;;;;;12.00;10.67;;;;;12.71;51.37;100171.97;5057524;28;46150;-72
2023/03/17 02:37:55;;;;;;;;;7.67;7.33;;;;;13.17;51.83;100224.66;5057373;28;45327;-74
2023/03/17 02:40:20;;;;;;;;;11.33;8.67;;;;;13.08;51.38;100216.69;5039407;28;45544;-74
2023/03/17 02:42:47;;;;;;;;;7.33;7.33;;;;;12.74;51.39;100170.78;5057938;28;45331;-74
2023/03/17 02:45:13;;;;;;;;;12.00;12.00;;;;;13.22;51.34;100235.69;5057148;28;45866;-74
2023/03/17 02:47:40;;;;;;;;;10.00;10.00;;;;;13.23;51.25;100229.34;5057394;28;45396;-74
2023/03/17 02:50:07;;;;;;;;;11.00;11.00;;;;;13.16;51.52;100228.34;5057341;28;45506;-74
2023/03/17 02:52:33;;;;;;;;;18.00;14.33;;;;;13.21;51.61;100239.34;5039549;28;45561;-74
2023/03/17 02:54:59;;;;;;;;;12.33;12.33;;;;;12.81;51.90;100166.41;5039084;28;47890;-74
2023/03/17 02:57:24;;;;;;;;;13.33;12.33;;;;;13.18;51.92;100235.19;5057323;28;45539;-75
2023/03/17 02:59:50;;;;;;;;;13.67;13.67;;;;;12.61;52.28;100133.16;5058182;28;45523;-74
2023/03/17 03:02:15;;;;;;;;;15.67;13.67;;;;;11.02;52.21;99876.50;5039310;28;45554;-73
2023/03/17 03:04:42;;;;;;;;;13.33;13.00;;;;;12.81;52.54;100153.09;5057358;28;46335;-74
2023/03/17 03:07:08;;;;;;;;;15.67;15.00;;;;;12.71;52.42;100155.13;5038986;28;45592;-73
2023/03/17 03:09:34;;;;;;;;;13.33;13.00;;;;;12.95;53.00;100197.72;5057222;28;45237;-75
2023/03/17 03:12:00;;;;;;;;;18.00;14.67;;;;;12.81;52.65;100190.44;5057869;28;45519;-73
2023/03/17 03:14:26;;;;;;;;;15.33;14.00;;;;;12.64;52.30;100167.50;5057529;28;46658;-74
2023/03/17 03:16:51;;;;;;;;;14.33;14.00;;;;;12.83;52.78;100201.78;5057190;28;45276;-74
2023/03/17 03:19:17;;;;;;;;;15.67;15.67;;;;;12.80;52.71;100196.78;5057361;28;45386;-74
2023/03/17 03:21:42;;;;;;;;;13.67;13.00;;;;;12.59;53.34;100180.50;5055716;28;45655;-72
2023/03/17 03:24:08;;;;;;;;;14.67;13.00;;;;;12.39;53.05;100167.53;5056208;28;46220;-74
2023/03/17 03:26:34;;;;;;;;;14.33;14.33;;;;;12.57;53.54;100193.16;5038704;28;45906;-73
2023/03/17 03:29:00;;;;;;;;;12.00;11.33;;;;;12.59;53.29;100197.31;5056975;28;45395;-73
2023/03/17 03:31:25;;;;;;;;;14.00;14.00;;;;;12.44;53.34;100189.22;5057138;28;45539;-73
2023/03/17 03:33:51;;;;;;;;;13.00;12.00;;;;;12.63;52.85;100200.50;5056573;28;45564;-74
2023/03/17 03:36:17;;;;;;;;;13.33;13.33;;;;;12.05;53.67;100111.00;5056468;28;45347;-76
2023/03/17 03:38:42;;;;;;;;;14.00;13.00;;;;;12.56;53.23;100212.84;5056959;28;45526;-74
2023/03/17 03:41:08;;;;;;;;;17.67;14.67;;;;;12.50;53.23;100209.03;5056931;28;45559;-74
2023/03/17 03:43:34;;;;;;;;;11.00;10.33;;;;;12.38;53.40;100178.38;5056881;28;45508;-73
2023/03/17 03:46:00;;;;;;;;;11.00;11.00;;;;;10.72;53.03;99938.31;5056501;28;45286;-74
2023/03/17 03:48:26;;;;;;;;;11.33;11.00;;;;;12.20;53.04;100178.56;5056828;28;45250;-74
2023/03/17 03:50:58;;;;;;;;;12.67;12.00;;;;;12.55;53.16;100225.34;5056734;28;45290;-74
2023/03/17 03:53:24;;;;;;;;;11.67;9.67;;;;;12.50;52.99;100209.03;5056536;28;46762;-74
2023/03/17 03:55:50;;;;;;;;;11.00;11.00;;;;;12.67;53.01;100215.16;5056530;28;45490;-73
2023/03/17 03:58:15;;;;;;;;;8.67;7.67;;;;;12.67;52.33;100223.16;5056522;28;45217;-74
2023/03/17 04:00:41;;;;;;;;;13.00;12.00;;;;;12.69;52.96;100237.16;5057110;28;45207;-73
2023/03/17 04:03:06;;;;;;;;;13.00;10.67;;;;;12.67;52.84;100220.50;5056251;28;45984;-74
2023/03/17 04:05:32;;;;;;;;;10.67;9.00;;;;;12.57;53.25;100211.84;5056700;28;45238;-72
2023/03/17 04:07:57;;;;;;;;;11.33;10.00;;;;;12.64;53.25;100223.50;5056220;28;45457;-74
2023/03/17 04:10:23;;;;;;;;;9.00;9.00;;;;;12.65;53.56;100230.50;5056698;28;45494;-73
2023/03/17 04:12:48;;;;;;;;;12.67;11.67;;;;;12.58;53.24;100211.66;5056335;28;45466;-73
2023/03/17 04:15:16;;;;;;;;;10.00;10.00;;;;;12.46;52.68;100197.88;5056307;28;45558;-75
2023/03/17 04:17:41;;;;;;;;;7.33;6.67;;;;;12.69;52.79;100229.16;5055103;28;45289;-73
2023/03/17 04:20:07;;;;;;;;;12.67;10.00;;;;;12.71;53.12;100233.31;5056581;28;45313;-73
2023/03/17 04:22:33;;;;;;;;;11.33;11.00;;;;;12.73;53.23;100225.13;5055984;28;46554;-74
2023/03/17 04:24:58;;;;;;;;;12.00;11.00;;;;;11.80;53.07;100080.88;5054902;28;45334;-73
2023/03/17 04:27:24;;;;;;;;;12.00;11.00;;;;;12.73;53.16;100227.81;5056202;28;45273;-74
2023/03/17 04:29:49;;;;;;;;;11.00;10.00;;;;;12.58;53.57;100202.84;5056327;28;45292;-73
2023/03/17 04:32:14;;;;;;;;;10.00;9.00;;;;;12.28;53.01;100157.25;5054524;28;48042;-75
2023/03/17 04:34:41;;;;;;;;;12.00;11.00;;;;;12.65;53.17;100239.34;5056858;28;45373;-74
2023/03/17 04:37:08;;;;;;;;;12.67;10.67;;;;;12.25;53.19;100141.59;5059399;28;45359;-74
2023/03/17 04:39:33;;;;;;;;;9.67;9.67;;;;;12.69;53.53;100213.16;5059576;28;45478;-73
2023/03/17 04:41:58;;;;;;;;;13.33;12.00;;;;;12.66;53.13;100213.50;5059155;28;45440;-73
2023/03/17 04:44:24;;;;;;;;;12.33;10.00;;;;;12.65;53.76;100222.50;5058857;28;45353;-73
2023/03/17 04:46:49;;;;;;;;;12.33;12.00;;;;;12.61;53.61;100213.97;5059394;28;45579;-73
2023/03/17 04:49:15;;;;;;;;;14.00;12.00;;;;;12.25;53.92;100172.75;5057990;28;45555;-74
2023/03/17 04:51:40;;;;;;;;;13.00;13.00;;;;;12.52;53.91;100227.53;5041333;28;46961;-73
2023/03/17 04:54:07;;;;;;;;;9.00;8.00;;;;;12.49;54.14;100224.19;5059541;28;45261;-73
2023/03/17 04:56:32;;;;;;;;;9.33;9.33;;;;;12.46;53.81;100251.19;5044735;28;45541;-74
2023/03/17 04:58:57;;;;;;;;;11.00;11.00;;;;;12.44;54.21;100226.53;5061721;28;45525;-75
2023/03/17 05:01:23;;;;;;;;;11.00;11.00;;;;;12.43;54.00;100230.22;5058970;28;46464;-74
2023/03/17 05:03:49;;;;;;;;;14.33;13.00;;;;;12.26;54.05;100188.56;5040799;28;46365;-74
2023/03/17 05:06:18;;;;;;;;;8.33;8.33;;;;;12.46;53.78;100229.88;5058979;28;45567;-74
2023/03/17 05:08:43;;;;;;;;;9.00;9.00;;;;;12.49;53.92;100224.19;5059467;28;45481;-74
2023/03/17 05:11:10;;;;;;;;;13.33;10.67;;;;;11.64;53.93;100078.22;5058710;28;45981;-74
2023/03/17 05:13:35;;;;;;;;;13.00;12.00;;;;;12.51;53.70;100217.84;5057464;28;45748;-72
2023/03/17 05:16:01;;;;;;;;;9.67;7.33;;;;;11.87;53.58;100128.00;5058899;28;45601;-73
2023/03/17 05:18:26;;;;;;;;;10.33;9.33;;;;;12.29;54.08;100185.56;5059115;28;45329;-74
2023/03/17 05:20:52;;;;;;;;;13.67;10.00;;;;;12.56;53.78;100234.16;5040282;28;45467;-74
2023/03/17 05:23:17;;;;;;;;;8.33;7.67;;;;;11.58;53.65;100074.34;5058402;28;45353;-75
2023/03/17 05:25:42;;;;;;;;;9.33;9.00;;;;;12.42;53.83;100204.56;5040582;28;45526;-74
2023/03/17 05:28:09;;;;;;;;;8.33;8.00;;;;;12.55;53.95;100244.00;5058707;28;45356;-73
2023/03/17 05:30:37;;;;;;;;;9.67;8.67;;;;;12.41;53.98;100210.88;5040159;28;48751;-74
2023/03/17 05:33:03;;;;;;;;;8.33;8.33;;;;;12.41;53.87;100216.22;5057367;28;46397;-74
2023/03/17 05:35:28;;;;;;;;;9.33;7.67;;;;;12.47;53.96;100228.88;5058239;28;45257;-74
2023/03/17 05:37:54;;;;;;;;;11.00;11.00;;;;;12.05;53.73;100156.28;5058797;28;45370;-72
2023/03/17 05:40:19;;;;;;;;;9.33;8.00;;;;;12.38;54.31;100207.69;5058366;28;45611;-73
2023/03/17 05:42:44;;;;;;;;;9.00;7.67;;;;;12.42;54.00;100212.56;5058430;28;45424;-75
2023/03/17 05:45:11;;;;;;;;;8.00;8.00;;;;;12.10;53.96;100164.59;5057546;28;45557;-74
2023/03/17 05:47:36;;;;;;;;;9.00;9.00;;;;;12.12;54.01;100171.41;5057001;28;45596;-73
2023/03/17 05:50:03;;;;;;;;;10.00;10.00;;;;;10.92;54.51;99969.75;5057578;28;45933;-73
2023/03/17 05:52:29;;;;;;;;;12.00;9.00;;;;;12.44;54.32;100221.22;5057953;28;45296;-75
2023/03/17 05:54:54;;;;;;;;;11.00;10.00;;;;;12.45;54.23;100217.53;5058322;28;45320;-73
2023/03/17 05:57:20;;;;;;;;;10.00;9.00;;;;;12.43;54.64;100224.88;5058300;28;45273;-73
2023/03/17 05:59:46;;;;;;;;;8.00;8.00;;;;;12.33;54.06;100210.03;5057997;28;45663;-73
2023/03/17 06:02:12;;;;;;;;;10.67;10.00;;;;;11.61;54.22;100097.97;5057987;28;45384;-74
2023/03/17 06:04:38;;;;;;;;;13.33;10.33;;;;;12.44;54.12;100231.88;5058015;28;45231;-73
2023/03/17 06:07:05;;;;;;;;;10.00;9.00;;;;;12.52;54.30;100246.19;5056963;28;45280;-75
2023/03/17 06:09:31;;;;;;;;;9.00;9.00;;;;;12.48;54.50;100230.53;5057540;28;45785;-73
2023/03/17 06:11:56;;;;;;;;;14.00;12.00;;;;;12.53;54.55;100234.50;5056225;28;45747;-73
2023/03/17 06:14:22;;;;;;;;;12.00;10.33;;;;;12.55;54.25;100216.50;5059313;28;45319;-74
2023/03/17 06:16:47;;;;;;;;;4.00;4.00;;;;;11.73;54.30;100094.00;5059383;28;45323;-74
2023/03/17 06:19:12;;;;;;;;;8.33;8.33;;;;;12.61;54.59;100231.81;5058239;28;45374;-73
2023/03/17 06:21:38;;;;;;;;;13.33;12.00;;;;;12.60;54.66;100240.81;5057164;28;45396;-74
2023/03/17 06:24:04;;;;;;;;;7.67;7.00;;;;;12.43;54.36;100208.88;5057128;28;45480;-74
2023/03/17 06:26:29;;;;;;;;;10.67;9.67;;;;;12.64;54.51;100236.84;5058238;28;45234;-74
2023/03/17 06:28:54;;;;;;;;;8.67;8.67;;;;;12.68;54.44;100246.16;5055183;28;47263;-75
2023/03/17 06:31:21;;;;;;;;;11.00;8.33;;;;;12.33;54.46;100191.38;5066388;28;45388;-75
2023/03/17 06:33:46;;;;;;;;;9.00;9.00;;;;;12.52;54.23;100207.03;5077904;28;45179;-75
2023/03/17 06:36:12;;;;;;;;;10.67;10.00;;;;;12.75;54.16;100239.13;5039141;28;45152;-74
2023/03/17 06:38:38;;;;;;;;;9.00;9.00;;;;;12.25;54.56;100146.09;5058880;28;45993;-74
2023/03/17 06:41:03;;;;;;;;;11.00;10.67;;;;;12.04;54.28;100114.66;5060296;28;45271;-76
2023/03/17 06:43:29;;;;;;;;;9.00;9.00;;;;;12.62;53.70;100188.19;5057459;28;45482;-74
2023/03/17 06:45:54;;;;;;;;;8.67;8.67;;;;;12.80;53.70;100213.59;5056908;28;45457;-74
2023/03/17 06:48:22;;;;;;;;;11.00;9.00;;;;;12.65;54.34;100185.16;5056776;28;46124;-70
2023/03/17 06:50:47;;;;;;;;;11.67;11.00;;;;;12.83;54.21;100222.31;5057255;28;45319;-74
2023/03/17 06:53:13;;;;;;;;;10.00;8.67;;;;;12.92;54.37;100239.94;5057315;28;45456;-74
2023/03/17 06:55:38;;;;;;;;;12.00;10.67;;;;;12.66;54.24;100202.84;5057489;28;45459;-74
2023/03/17 06:58:04;;;;;;;;;13.67;11.00;;;;;12.66;54.17;100210.84;5038705;28;48068;-74
2023/03/17 07:00:29;;;;;;;;;17.67;12.00;;;;;12.93;54.22;100255.78;5057292;28;45343;-75
2023/03/17 07:02:55;;;;;;;;;15.00;12.00;;;;;12.69;53.76;100208.66;5057175;28;45336;-75
2023/03/17 07:05:21;;;;;;;;;13.33;12.33;;;;;13.06;53.56;100261.41;5039159;28;45265;-76
2023/03/17 07:07:48;;;;;;;;;18.33;13.33;;;;;12.54;53.51;100166.84;5038698;28;48213;-73
2023/03/17 07:10:14;;;;;;;;;12.67;12.67;;;;;13.19;53.81;100257.38;5056192;28;45294;-75
2023/03/17 07:12:40;;;;;;;;;14.00;13.00;;;;;13.15;53.22;100234.69;5039798;28;45429;-72
2023/03/17 07:15:06;;;;;;;;;29.00;26.00;;;;;13.16;52.96;100226.50;5058314;28;45503;-75
2023/03/17 07:17:34;;;;;;;;;28.00;26.33;;;;;13.16;52.64;100204.31;5056955;28;46295;-74
2023/03/17 07:19:59;;;;;;;;;24.33;21.67;;;;;12.86;52.82;100142.75;5056103;28;45258;-73
2023/03/17 07:22:25;;;;;;;;;18.00;17.33;;;;;13.48;52.42;100230.88;5039851;28;45611;-77
2023/03/17 07:24:51;;;;;;;;;38.67;27.33;;;;;12.70;52.36;100097.47;5053665;28;45283;-74
2023/03/17 07:27:16;;;;;;;;;16.67;15.67;;;;;13.66;51.78;100242.13;5055812;28;45669;-75
2023/03/17 07:29:42;;;;;;;;;18.33;15.67;;;;;13.78;51.44;100249.75;5054415;28;45317;-76
2023/03/17 07:32:08;;;;;;;;;13.67;12.33;;;;;13.97;50.87;100267.97;5056153;28;45375;-76
2023/03/17 07:34:34;;;;;;;;;12.00;10.00;;;;;14.07;50.47;100267.75;5039216;28;45517;-76
2023/03/17 07:37:00;;;;;;;;;13.67;11.00;;;;;14.17;50.14;100241.59;5055811;28;45786;-73
2023/03/17 07:39:26;;;;;;;;;12.00;8.33;;;;;14.34;49.88;100255.69;5056300;28;45414;-76
2023/03/17 07:41:53;;;;;;;;;10.00;10.00;;;;;14.59;49.13;100267.84;5037856;28;45590;-74
2023/03/17 07:44:23;;;;;;;;;8.67;8.67;;;;;14.61;48.75;100233.72;5057200;28;45334;-74
2023/03/17 07:46:50;;;;;;;;;10.00;10.00;;;;;14.64;47.85;100211.13;5038797;28;48348;-74
2023/03/17 07:49:16;;;;;;;;;9.00;9.00;;;;;14.42;47.58;100180.75;5055670;28;45284;-77
2023/03/17 07:51:42;;;;;;;;;11.00;11.00;;;;;14.88;47.43;100246.50;5042477;28;45580;-75
2023/03/17 07:54:11;;;;;;;;;14.00;12.00;;;;;14.44;47.15;100173.38;5056269;28;45444;-72
2023/03/17 07:56:37;;;;;;;;;10.33;8.67;;;;;14.97;47.17;100270.47;5056234;28;45463;-75
2023/03/17 07:59:03;;;;;;;;;8.00;7.00;;;;;14.76;47.12;100226.53;5056038;28;45435;-75
2023/03/17 08:01:29;;;;;;;;;9.67;9.67;;;;;14.81;47.11;100224.13;5056090;28;45305;-80
2023/03/17 08:03:55;;;;;;;;;12.00;9.00;;;;;15.09;46.69;100252.94;5050549;28;46100;-73
2023/03/17 08:06:24;;;;;;;;;12.33;8.33;;;;;14.77;46.45;100206.78;5056402;28;45618;-76
2023/03/17 08:08:50;;;;;;;;;10.00;9.67;;;;;15.14;46.21;100271.97;5039148;28;45738;-75
2023/03/17 08:11:16;;;;;;;;;8.67;8.67;;;;;15.26;45.86;100270.50;5041474;28;45391;-74
2023/03/17 08:13:42;;;;;;;;;8.67;8.67;;;;;15.11;45.39;100229.50;5060354;28;45535;-73
2023/03/17 08:16:08;;;;;;;;;21.33;17.67;;;;;15.25;45.78;100246.56;5040933;28;47663;-76
2023/03/17 08:18:33;;;;;;;;;16.33;15.33;;;;;15.25;45.24;100233.19;5058671;28;45466;-75
2023/03/17 08:20:59;;;;;;;;;22.00;19.00;;;;;15.02;44.69;100177.09;5062477;28;45470;-76
2023/03/17 08:23:24;;;;;;;;;30.50;29.00;;;;;15.74;44.77;100263.69;5061295;28;45610;-75
2023/03/17 08:25:55;;;;;;;;;9.00;8.00;;;;;15.94;44.64;100263.91;5058248;28;48421;-74
2023/03/17 08:28:21;;;;;;;;;12.67;10.00;;;;;16.05;43.37;100239.28;5058721;28;45576;-74
2023/03/17 08:30:47;;;;;;;;;11.00;9.00;;;;;16.47;43.34;100264.41;5058927;28;45367;-75
2023/03/17 08:33:13;;;;;;;;;15.00;10.67;;;;;16.57;42.92;100238.03;5059598;28;45203;-76
2023/03/17 08:35:40;;;;;;;;;13.00;10.00;;;;;16.50;41.97;100198.78;5059551;28;46360;-75
2023/03/17 08:38:06;;;;;;;;;15.67;12.67;;;;;17.05;41.44;100265.06;5044748;28;45514;-77
2023/03/17 08:40:32;;;;;;;;;5.67;5.67;;;;;17.17;40.43;100263.44;5052220;28;45695;-75
2023/03/17 08:42:57;;;;;;;;;6.00;6.00;;;;;16.95;39.61;100202.81;5049693;28;45428;-76
2023/03/17 08:45:23;;;;;;;;;7.33;5.67;;;;;17.39;40.08;100252.59;5037855;28;48089;-77
2023/03/17 08:47:49;;;;;;;;;10.67;6.67;;;;;17.67;40.01;100245.28;5054504;28;45451;-77
2023/03/17 08:50:17;;;;;;;;;8.67;7.67;;;;;17.99;39.57;100224.06;5061508;28;45472;-75
2023/03/17 08:52:44;;;;;;;;;8.67;7.00;;;;;18.23;38.57;100239.63;5067178;28;45480;-77
2023/03/17 08:55:11;;;;;;;;;8.33;5.00;;;;;17.89;38.29;100136.56;5040819;28;45470;-82
2023/03/17 08:57:37;;;;;;;;;7.00;7.00;;;;;18.48;37.43;100211.03;5055458;28;45504;-75
2023/03/17 09:00:09;;;;;;;;;8.00;6.33;;;;;18.19;37.12;100103.81;5059040;28;45502;-74
2023/03/17 09:02:38;;;;;;;;;11.67;10.33;;;;;19.12;36.34;100209.50;5050926;28;45352;-76
2023/03/17 09:05:06;;;;;;;;;8.67;5.67;;;;;18.38;36.03;100011.47;5040281;28;45969;-76
2023/03/17 09:07:32;;;;;;;;;6.00;6.00;;;;;20.04;35.11;100206.34;5077386;28;45450;-75
2023/03/17 09:09:59;;;;;;;;;6.00;3.67;;;;;19.85;34.57;100120.16;5071383;28;45477;-76
2023/03/17 09:12:24;;;;;;;;;5.00;4.00;;;;;20.70;34.12;100212.22;5059624;28;45456;-75
2023/03/17 09:14:50;;;;;;;;;5.67;5.67;;;;;20.50;33.16;100129.53;5040513;28;48332;-75
2023/03/17 09:17:15;;;;;;;;;9.67;9.67;;;;;21.10;32.09;100212.63;5058440;28;45403;-77
2023/03/17 09:19:42;;;;;;;;;6.67;5.33;;;;;20.76;32.26;100127.59;5056556;28;45529;-76
2023/03/17 09:22:12;;;;;;;;;5.33;5.33;;;;;21.42;31.21;100241.16;5041977;28;45384;-77
2023/03/17 09:24:38;;;;;;;;;5.67;5.00;;;;;21.54;31.20;100233.94;5042098;28;46273;-76
2023/03/17 09:27:04;;;;;;;;;6.00;3.33;;;;;21.40;31.00;100172.97;5055836;28;45349;-76
2023/03/17 09:29:30;;;;;;;;;4.00;2.67;;;;;21.08;30.57;100090.41;5042414;28;45533;-76
2023/03/17 09:31:55;;;;;;;;;4.67;3.33;;;;;22.22;30.39;100211.13;5047229;28;45359;-77
2023/03/17 09:34:21;;;;;;;;;6.33;6.33;;;;;22.23;30.07;100138.84;5057829;28;46275;-78
2023/03/17 09:36:47;;;;;;;;;4.00;4.00;;;;;22.80;29.13;100149.84;5040807;28;45538;-76
2023/03/17 09:39:13;;;;;;;;;7.00;7.00;;;;;24.21;28.04;100216.09;5056495;28;45484;-76
2023/03/17 09:41:59;;;;;;;;;3.67;3.00;;;;;24.96;27.23;100207.47;5058245;28;45410;-75
2023/03/17 09:44:25;;;;;;;;;3.00;3.00;;;;;25.96;26.03;100206.22;5038512;28;45757;-76
2023/03/17 09:46:56;;;;;;;;;5.67;3.00;;;;;26.75;25.26;100205.50;5041494;28;45285;-76
2023/03/17 09:49:44;;;;;;;;;4.00;4.00;;;;;26.94;23.61;100127.59;5056867;28;45474;-77
2023/03/17 09:52:17;;;;;;;;;5.00;4.00;;;;;27.74;23.37;100201.84;5047573;28;45456;-75
2023/03/17 09:54:48;;;;;;;;;3.67;3.67;;;;;27.34;23.68;100155.31;5039245;28;47095;-75
2023/03/17 09:57:35;;;;;;;;;3.00;3.00;;;;;27.10;24.55;100204.09;5039880;28;45603;-77
2023/03/17 10:00:13;;;;;;;;;13.67;13.67;;;;;26.58;24.07;100202.13;5054322;28;45424;-76
2023/03/17 10:02:39;;;;;;;;;5.00;4.00;;;;;25.17;25.13;100127.00;5049309;28;45619;-77
2023/03/17 10:05:20;;;;;;;;;6.33;6.00;;;;;24.95;26.18;100203.13;5057596;28;46201;-77
2023/03/17 10:08:07;;;;;;;;;3.33;3.33;;;;;24.01;27.27;100183.16;5054082;28;45451;-74
2023/03/17 10:10:46;;;;;;;;;6.67;5.00;;;;;23.80;27.52;100212.69;5047017;28;45327;-79
2023/03/17 10:13:25;;;;;;;;;4.00;4.00;;;;;22.49;28.06;100073.34;5049920;28;45586;-77
2023/03/17 10:16:02;;;;;;;;;2.00;2.00;;;;;22.89;29.14;100191.84;5057042;28;45953;-77
2023/03/17 10:18:44;;;;;;;;;3.67;3.67;;;;;22.90;29.14;100228.72;5056910;28;45436;-75
2023/03/17 10:21:16;;;;;;;;;2.00;1.00;;;;;22.60;29.32;100237.78;5057645;28;45444;-78
2023/03/17 10:23:42;;;;;;;;;5.00;4.00;;;;;21.99;30.02;100189.38;5044894;28;45526;-77
2023/03/17 10:26:33;;;;;;;;;5.00;3.67;;;;;21.92;30.23;100213.84;5030923;28;45781;-78
2023/03/17 10:29:03;;;;;;;;;4.00;3.00;;;;;21.61;30.64;100217.63;5036498;28;45474;-76
2023/03/17 10:31:32;;;;;;;;;4.00;3.00;;;;;21.37;30.92;100216.69;5024548;28;45944;-76
2023/03/17 10:34:11;;;;;;;;;5.00;5.00;;;;;21.32;31.47;100227.38;5034539;28;45445;-77
2023/03/17 10:36:43;;;;;;;;;5.00;3.00;;;;;20.90;31.60;100170.44;5039942;28;47846;-78
2023/03/17 10:39:13;;;;;;;;;4.33;2.67;;;;;20.50;32.44;100150.31;5047282;28;45433;-78
2023/03/17 10:41:40;;;;;;;;;4.33;2.00;;;;;20.23;32.75;100137.03;5043652;28;45373;-78
2023/03/17 10:44:21;;;;;;;;;4.00;2.00;;;;;20.47;33.79;100224.50;5041976;28;45677;-76
2023/03/17 10:46:56;;;;;;;;;6.00;3.33;;;;;20.27;33.83;100227.34;5040148;28;48068;-74
2023/03/17 10:49:23;;;;;;;;;3.00;3.00;;;;;20.11;34.49;100217.06;5057697;28;45406;-77
2023/03/17 10:51:52;;;;;;;;;3.67;2.67;;;;;19.78;34.48;100184.09;5056683;28;45402;-75
2023/03/17 10:54:19;;;;;;;;;9.33;8.00;;;;;19.83;35.05;100197.78;5058482;28;45332;-75
2023/03/17 10:56:54;;;;;;;;;6.67;3.00;;;;;19.32;35.29;100121.28;5038653;28;45558;-75
2023/03/17 10:59:27;;;;;;;;;3.00;1.00;;;;;18.98;35.27;100082.06;5038310;28;45611;-75
2023/03/17 11:01:56;;;;;;;;;3.00;3.00;;;;;19.33;35.34;100149.88;5056719;28;45432;-77
2023/03/17 11:04:40;;;;;;;;;1.67;1.67;;;;;19.65;35.57;100233.56;5059952;28;45332;-75
2023/03/17 11:07:16;;;;;;;;;4.67;3.33;;;;;19.01;35.65;100137.38;5057960;28;45475;-76
2023/03/17 11:09:42;;;;;;;;;4.67;3.00;;;;;19.51;35.70;100227.38;5057317;28;45297;-76
2023/03/17 11:12:28;;;;;;;;;3.00;2.00;;;;;19.44;35.29;100240.88;5040400;28;45305;-75
2023/03/17 11:15:02;;;;;;;;;9.33;8.00;;;;;19.40;35.31;100241.50;5057270;28;45384;-76
2023/03/17 11:17:49;;;;;;;;;2.00;2.00;;;;;19.36;35.67;100230.31;5057242;28;46120;-77